createdAt,value
2022-11-17T00:00:00.970Z,3.93
2022-11-17T00:02:31.051Z,4.53
2022-11-17T00:05:05.414Z,4.73
2022-11-17T00:07:36.493Z,5.03
2022-11-17T00:10:06.140Z,4.50
2022-11-17T00:12:52.254Z,5.00
2022-11-17T00:15:20.944Z,4.90
2022-11-17T00:18:16.780Z,5.47
2022-11-17T00:21:07.687Z,5.00
2022-11-17T00:23:50.675Z,4.80
2022-11-17T00:26:27.644Z,5.47
2022-11-17T00:28:58.878Z,5.87
2022-11-17T00:31:50.748Z,5.60
2022-11-17T00:34:26.671Z,5.43
2022-11-17T00:36:59.083Z,4.80
2022-11-17T00:39:30.685Z,4.97
2022-11-17T00:42:02.164Z,5.20
2022-11-17T00:44:50.083Z,6.30
2022-11-17T00:47:20.461Z,6.00
2022-11-17T00:49:53.545Z,5.23
2022-11-17T00:52:30.946Z,5.60
2022-11-17T00:55:05.216Z,5.10
2022-11-17T00:57:36.099Z,5.13
2022-11-17T01:00:07.785Z,5.53
2022-11-17T01:02:40.146Z,5.30
2022-11-17T01:05:14.669Z,5.87
2022-11-17T01:07:49.774Z,6.07
2022-11-17T01:10:24.719Z,6.17
2022-11-17T01:13:01.764Z,6.90
2022-11-17T01:18:36.563Z,7.40
2022-11-17T01:21:21.277Z,5.83
2022-11-17T01:24:22.130Z,5.40
2022-11-17T01:27:01.832Z,5.10
2022-11-17T01:29:32.079Z,5.40
2022-11-17T01:32:02.669Z,5.47
2022-11-17T01:34:32.688Z,4.87
2022-11-17T01:37:19.773Z,4.83
2022-11-17T01:39:48.438Z,6.27
2022-11-17T01:42:20.577Z,6.07
2022-11-17T01:45:03.958Z,5.80
2022-11-17T01:47:45.997Z,5.83
2022-11-17T01:50:31.755Z,5.73
2022-11-17T01:53:10.794Z,5.70
2022-11-17T01:55:55.819Z,5.63
2022-11-17T01:58:44.257Z,4.90
2022-11-17T02:01:16.549Z,5.27
2022-11-17T02:03:52.016Z,6.03
2022-11-17T02:06:41.128Z,5.30
2022-11-17T02:09:09.629Z,5.60
2022-11-17T02:11:43.242Z,6.17
2022-11-17T02:14:18.231Z,8.23
2022-11-17T02:16:48.078Z,9.33
2022-11-17T02:19:24.736Z,10.10
2022-11-17T02:22:26.625Z,9.37
2022-11-17T02:25:25.716Z,9.60
2022-11-17T02:28:26.848Z,11.10
2022-11-17T02:31:15.305Z,9.90
2022-11-17T02:33:56.432Z,8.27
2022-11-17T02:36:34.392Z,7.43
2022-11-17T02:39:13.394Z,8.93
2022-11-17T02:41:51.460Z,7.00
2022-11-17T02:44:26.341Z,6.70
2022-11-17T02:46:59.481Z,6.90
2022-11-17T02:49:34.335Z,6.53
2022-11-17T02:52:04.015Z,7.37
2022-11-17T02:54:33.562Z,6.47
2022-11-17T02:57:03.573Z,7.20
2022-11-17T02:59:36.456Z,6.80
2022-11-17T03:02:25.233Z,7.13
2022-11-17T03:05:05.747Z,7.87
2022-11-17T03:07:48.820Z,8.00
2022-11-17T03:10:21.723Z,8.37
2022-11-17T03:12:56.403Z,8.80
2022-11-17T03:15:31.231Z,8.60
2022-11-17T03:18:24.321Z,8.20
2022-11-17T03:21:12.059Z,8.23
2022-11-17T03:23:44.540Z,7.73
2022-11-17T03:26:19.383Z,8.23
2022-11-17T03:28:49.373Z,8.37
2022-11-17T03:31:25.923Z,8.80
2022-11-17T03:33:58.243Z,8.03
2022-11-17T03:36:36.660Z,7.90
2022-11-17T03:39:35.139Z,7.33
2022-11-17T03:42:15.638Z,7.60
2022-11-17T03:45:17.657Z,7.33
2022-11-17T03:48:00.163Z,7.30
2022-11-17T03:50:40.154Z,6.63
2022-11-17T03:53:11.293Z,7.40
2022-11-17T03:55:56.332Z,6.47
2022-11-17T03:58:31.392Z,7.37
2022-11-17T04:01:04.379Z,7.47
2022-11-17T04:03:38.342Z,6.17
2022-11-17T04:06:11.940Z,6.60
2022-11-17T04:08:43.598Z,6.17
2022-11-17T04:11:32.835Z,5.60
2022-11-17T04:14:24.827Z,5.73
2022-11-17T04:16:53.181Z,5.63
2022-11-17T04:19:22.977Z,5.97
2022-11-17T04:21:53.205Z,6.00
2022-11-17T04:24:24.878Z,6.03
2022-11-17T04:27:11.293Z,6.43
2022-11-17T04:29:40.934Z,6.40
2022-11-17T04:32:09.155Z,6.57
2022-11-17T04:35:31.209Z,7.00
2022-11-17T04:42:04.967Z,7.40
2022-11-17T04:44:34.859Z,7.93
2022-11-17T04:47:04.356Z,8.67
2022-11-17T04:49:33.967Z,7.67
2022-11-17T04:52:06.886Z,6.87
2022-11-17T04:54:35.426Z,7.37
2022-11-17T04:57:04.842Z,7.70
2022-11-17T04:59:35.695Z,8.37
2022-11-17T05:02:06.289Z,7.70
2022-11-17T05:04:53.268Z,8.33
2022-11-17T05:08:32.425Z,6.87
2022-11-17T05:11:35.835Z,7.17
2022-11-17T05:14:05.094Z,7.37
2022-11-17T05:16:56.886Z,8.23
2022-11-17T05:19:42.898Z,8.20
2022-11-17T05:22:47.773Z,7.60
2022-11-17T05:25:17.467Z,6.00
2022-11-17T05:27:54.334Z,5.33
2022-11-17T05:30:24.181Z,5.43
2022-11-17T05:32:53.182Z,5.97
2022-11-17T05:35:21.717Z,5.27
2022-11-17T05:37:50.679Z,4.10
2022-11-17T05:40:19.039Z,3.30
2022-11-17T05:42:51.802Z,3.90
2022-11-17T05:45:27.190Z,3.10
2022-11-17T05:47:55.633Z,3.17
2022-11-17T05:50:25.521Z,3.20
2022-11-17T05:52:53.789Z,3.40
2022-11-17T05:55:23.201Z,3.63
2022-11-17T05:57:54.925Z,3.10
2022-11-17T06:00:24.576Z,2.87
2022-11-17T06:02:56.792Z,3.03
2022-11-17T06:05:25.905Z,2.90
2022-11-17T06:08:27.759Z,4.10
2022-11-17T06:14:19.936Z,3.20
2022-11-17T06:17:02.733Z,3.63
2022-11-17T06:19:54.748Z,3.20
2022-11-17T06:25:22.187Z,3.87
2022-11-17T06:28:35.507Z,3.80
2022-11-17T06:31:11.371Z,4.20
2022-11-17T06:33:46.347Z,4.60
2022-11-17T06:36:16.235Z,4.80
2022-11-17T06:38:58.628Z,5.27
2022-11-17T06:41:46.309Z,4.83
2022-11-17T06:44:52.142Z,4.97
2022-11-17T06:47:43.740Z,5.30
2022-11-17T06:53:51.434Z,5.43
2022-11-17T06:56:37.012Z,6.17
2022-11-17T06:59:06.634Z,7.43
2022-11-17T07:01:40.644Z,5.27
2022-11-17T07:04:25.584Z,5.37
2022-11-17T07:06:54.250Z,5.70
2022-11-17T07:12:36.356Z,5.13
2022-11-17T07:15:33.008Z,5.40
2022-11-17T07:18:02.624Z,5.37
2022-11-17T07:20:54.801Z,5.83
2022-11-17T07:23:32.021Z,5.30
2022-11-17T07:26:22.962Z,5.67
2022-11-17T07:32:37.876Z,5.07
2022-11-17T07:36:06.902Z,5.27
2022-11-17T07:39:23.235Z,5.57
2022-11-17T07:42:12.886Z,6.13
2022-11-17T07:44:44.331Z,6.10
2022-11-17T07:47:16.155Z,6.30
2022-11-17T07:49:52.549Z,6.33
2022-11-17T07:52:27.000Z,6.70
2022-11-17T07:54:56.952Z,6.13
2022-11-17T07:57:34.785Z,6.10
2022-11-17T08:06:31.564Z,6.30
2022-11-17T08:09:07.222Z,6.70
2022-11-17T08:11:38.722Z,7.03
2022-11-17T08:14:12.367Z,6.87
2022-11-17T08:16:51.403Z,6.93
2022-11-17T08:19:21.980Z,7.33
2022-11-17T08:21:55.689Z,7.50
2022-11-17T08:24:31.424Z,6.97
2022-11-17T08:27:21.390Z,6.40
2022-11-17T08:32:21.669Z,6.37
2022-11-17T08:34:53.794Z,5.70
2022-11-17T08:37:45.085Z,5.80
2022-11-17T08:40:20.666Z,5.93
2022-11-17T08:43:05.496Z,5.90
2022-11-17T08:46:12.147Z,5.90
2022-11-17T08:48:41.504Z,6.37
2022-11-17T08:51:15.656Z,6.10
2022-11-17T08:53:47.837Z,5.53
2022-11-17T08:56:16.928Z,5.80
2022-11-17T08:58:49.549Z,5.47
2022-11-17T09:01:56.766Z,5.77
2022-11-17T09:04:28.053Z,4.77
2022-11-17T09:07:07.430Z,6.00
2022-11-17T09:09:36.972Z,5.20
2022-11-17T09:12:11.227Z,5.63
2022-11-17T09:14:44.406Z,5.20
2022-11-17T09:17:16.927Z,5.37
2022-11-17T09:19:46.804Z,5.70
2022-11-17T09:22:15.404Z,4.47
2022-11-17T09:24:43.607Z,4.10
2022-11-17T09:27:15.631Z,3.80
2022-11-17T09:29:54.369Z,4.17
2022-11-17T09:32:22.818Z,5.37
2022-11-17T09:35:03.623Z,4.40
2022-11-17T09:37:37.936Z,4.13
2022-11-17T09:40:12.856Z,4.43
2022-11-17T09:42:45.760Z,5.10
2022-11-17T09:45:27.996Z,4.13
2022-11-17T09:51:11.736Z,4.00
2022-11-17T09:53:46.619Z,4.20
2022-11-17T09:56:25.181Z,4.17
2022-11-17T09:59:06.579Z,4.00
2022-11-17T10:01:58.487Z,3.50
2022-11-17T10:04:30.220Z,3.90
2022-11-17T10:07:01.448Z,3.33
2022-11-17T10:09:38.697Z,4.23
2022-11-17T10:12:34.644Z,3.73
2022-11-17T10:15:33.154Z,3.43
2022-11-17T10:18:32.559Z,3.23
2022-11-17T10:21:25.210Z,3.50
2022-11-17T10:24:07.270Z,3.27
2022-11-17T10:30:44.176Z,3.27
2022-11-17T10:33:41.464Z,2.70
2022-11-17T10:36:21.583Z,2.50
2022-11-17T10:39:00.310Z,2.67
2022-11-17T10:41:41.659Z,2.57
2022-11-17T10:44:22.657Z,2.70
2022-11-17T10:47:03.257Z,1.90
2022-11-17T10:50:22.546Z,2.57
2022-11-17T10:52:53.002Z,2.13
2022-11-17T10:55:52.992Z,2.60
2022-11-17T10:59:03.399Z,2.40
2022-11-17T11:02:04.897Z,3.00
2022-11-17T11:04:48.957Z,3.00
2022-11-17T11:07:59.440Z,3.20
2022-11-17T11:10:51.612Z,2.70
2022-11-17T11:13:37.656Z,2.40
2022-11-17T11:16:13.885Z,2.00
2022-11-17T11:18:52.552Z,2.30
2022-11-17T11:25:37.439Z,2.00
2022-11-17T11:28:45.771Z,1.67
2022-11-17T11:31:24.432Z,1.90
2022-11-17T11:33:53.209Z,2.00
2022-11-17T11:36:37.045Z,1.73
2022-11-17T11:42:54.164Z,2.23
2022-11-17T11:45:37.482Z,1.80
2022-11-17T11:48:47.115Z,3.30
2022-11-17T11:51:50.232Z,2.20
2022-11-17T12:05:31.796Z,2.07
2022-11-17T12:08:21.873Z,1.63
2022-11-17T12:11:27.609Z,2.43
2022-11-17T12:14:00.666Z,1.90
2022-11-17T12:16:33.102Z,2.20
2022-11-17T12:19:03.801Z,2.00
2022-11-17T12:21:39.664Z,1.73
2022-11-17T12:24:18.456Z,3.27
2022-11-17T12:26:48.526Z,8.43
2022-11-17T12:29:53.314Z,4.27
2022-11-17T12:36:37.747Z,2.03
2022-11-17T12:39:56.270Z,2.90
2022-11-17T12:42:34.378Z,2.13
2022-11-17T12:45:12.473Z,1.70
2022-11-17T12:48:11.261Z,2.40
2022-11-17T12:51:00.491Z,2.90
2022-11-17T12:53:54.986Z,2.37
2022-11-17T13:00:31.541Z,2.97
2022-11-17T13:03:40.250Z,2.90
2022-11-17T13:06:34.311Z,2.30
2022-11-17T13:09:03.299Z,2.10
2022-11-17T13:11:37.680Z,1.50
2022-11-17T13:14:17.356Z,3.90
2022-11-17T13:16:47.967Z,1.73
2022-11-17T13:20:05.320Z,1.67
2022-11-17T13:23:23.087Z,2.13
2022-11-17T13:26:21.333Z,1.80
2022-11-17T13:29:06.129Z,2.10
2022-11-17T13:31:56.928Z,1.80
2022-11-17T13:41:29.803Z,1.20
2022-11-17T13:44:27.026Z,1.20
2022-11-17T13:46:56.339Z,2.00
2022-11-17T13:49:37.132Z,2.13
2022-11-17T13:52:15.190Z,1.80
2022-11-17T13:54:46.479Z,1.63
2022-11-17T13:57:34.354Z,1.70
2022-11-17T14:00:06.333Z,1.70
2022-11-17T14:02:35.916Z,3.37
2022-11-17T14:05:28.098Z,1.77
2022-11-17T14:08:00.294Z,1.97
2022-11-17T14:11:32.547Z,2.07
2022-11-17T14:14:47.369Z,2.33
2022-11-17T14:24:47.920Z,2.13
2022-11-17T14:27:46.022Z,4.23
2022-11-17T14:30:18.427Z,2.10
2022-11-17T14:33:01.519Z,2.80
2022-11-17T14:35:38.348Z,2.50
2022-11-17T14:38:16.630Z,3.07
2022-11-17T14:40:45.619Z,2.40
2022-11-17T14:43:20.126Z,2.70
2022-11-17T14:45:55.982Z,2.60
2022-11-17T14:48:41.882Z,2.03
2022-11-17T14:51:21.592Z,2.00
2022-11-17T15:01:37.931Z,2.20
2022-11-17T15:07:02.833Z,2.53
2022-11-17T15:09:33.638Z,3.73
2022-11-17T15:12:15.602Z,3.83
2022-11-17T15:14:56.460Z,3.97
2022-11-17T15:17:29.463Z,3.33
2022-11-17T15:19:58.940Z,3.53
2022-11-17T15:22:37.035Z,3.77
2022-11-17T15:25:16.610Z,4.60
2022-11-17T15:27:51.070Z,2.73
2022-11-17T15:30:27.817Z,2.47
2022-11-17T15:33:01.969Z,4.03
2022-11-17T15:35:32.719Z,2.20
2022-11-17T15:38:03.747Z,1.80
2022-11-17T15:40:38.516Z,2.27
2022-11-17T15:43:30.447Z,2.60
2022-11-17T15:46:14.138Z,1.80
2022-11-17T15:53:02.906Z,2.90
2022-11-17T15:55:38.773Z,6.07
2022-11-17T15:58:25.396Z,3.47
2022-11-17T16:00:59.206Z,2.70
2022-11-17T16:03:36.169Z,1.90
2022-11-17T16:07:08.676Z,2.13
2022-11-17T16:16:41.454Z,2.03
2022-11-17T16:19:29.925Z,2.40
2022-11-17T16:24:37.831Z,2.30
2022-11-17T16:27:21.506Z,2.10
2022-11-17T16:30:09.332Z,2.13
2022-11-17T16:36:18.006Z,2.40
2022-11-17T16:39:00.800Z,2.57
2022-11-17T16:41:34.737Z,2.10
2022-11-17T16:44:09.207Z,2.57
2022-11-17T16:46:49.941Z,2.20
2022-11-17T16:49:32.602Z,3.40
2022-11-17T16:52:02.225Z,4.37
2022-11-17T16:54:38.264Z,2.80
2022-11-17T16:57:15.389Z,3.00
2022-11-17T16:59:48.286Z,3.53
2022-11-17T17:05:50.785Z,6.97
2022-11-17T17:08:34.067Z,5.13
2022-11-17T17:11:42.078Z,4.23
2022-11-17T17:14:53.024Z,3.70
2022-11-17T17:17:25.770Z,3.83
2022-11-17T17:20:43.622Z,4.47
2022-11-17T17:23:41.124Z,4.47
2022-11-17T17:26:53.894Z,3.10
2022-11-17T17:29:34.349Z,3.37
2022-11-17T17:32:41.298Z,3.03
2022-11-17T17:35:46.861Z,3.47
2022-11-17T17:41:34.824Z,3.23
2022-11-17T17:48:16.429Z,2.80
2022-11-17T17:50:49.781Z,3.83
2022-11-17T17:53:26.456Z,3.30
2022-11-17T17:56:08.372Z,2.60
2022-11-17T17:59:22.252Z,3.00
2022-11-17T18:02:10.519Z,3.00
2022-11-17T18:04:42.118Z,4.47
2022-11-17T18:07:33.894Z,15.83
2022-11-17T18:10:50.680Z,4.10
2022-11-17T18:13:21.923Z,4.40
2022-11-17T18:15:55.509Z,2.67
2022-11-17T18:18:26.522Z,2.60
2022-11-17T18:21:06.228Z,3.07
2022-11-17T18:23:49.792Z,3.30
2022-11-17T18:29:52.462Z,4.60
2022-11-17T18:32:50.255Z,2.80
2022-11-17T18:35:19.646Z,2.73
2022-11-17T18:37:51.506Z,2.40
2022-11-17T18:40:27.740Z,3.70
2022-11-17T18:43:10.436Z,3.13
2022-11-17T18:49:21.002Z,3.30
2022-11-17T18:55:13.280Z,3.53
2022-11-17T18:57:58.258Z,4.97
2022-11-17T19:00:29.219Z,3.30
2022-11-17T19:03:01.012Z,3.77
2022-11-17T19:05:36.628Z,3.63
2022-11-17T19:08:08.085Z,4.70
2022-11-17T19:10:38.671Z,3.17
2022-11-17T19:13:08.696Z,3.07
2022-11-17T19:15:44.542Z,2.80
2022-11-17T19:18:39.625Z,4.30
2022-11-17T19:21:16.223Z,4.90
2022-11-17T19:23:55.532Z,3.60
2022-11-17T19:29:42.684Z,2.80
2022-11-17T19:32:25.549Z,2.60
2022-11-17T19:35:03.560Z,2.80
2022-11-17T19:37:41.533Z,2.87
2022-11-17T19:40:33.779Z,2.80
2022-11-17T19:43:13.177Z,2.73
2022-11-17T19:46:05.500Z,3.40
2022-11-17T19:48:40.040Z,3.73
2022-11-17T19:51:34.930Z,3.07
2022-11-17T19:54:40.921Z,3.37
2022-11-17T19:57:10.667Z,2.73
2022-11-17T20:02:49.466Z,3.40
2022-11-17T20:05:29.431Z,4.70
2022-11-17T20:07:59.847Z,5.63
2022-11-17T20:10:28.169Z,9.73
2022-11-17T20:13:06.348Z,7.77
2022-11-17T20:15:48.192Z,7.30
2022-11-17T20:18:29.472Z,5.80
2022-11-17T20:21:05.289Z,6.03
2022-11-17T20:23:35.229Z,5.00
2022-11-17T20:30:04.471Z,4.93
2022-11-17T20:32:56.622Z,4.27
2022-11-17T20:38:14.657Z,5.80
2022-11-17T20:40:46.346Z,5.00
2022-11-17T20:43:17.215Z,10.27
2022-11-17T20:45:51.578Z,4.90
2022-11-17T20:48:22.431Z,5.00
2022-11-17T20:54:07.621Z,4.07
2022-11-17T20:56:44.463Z,3.60
2022-11-17T20:59:20.292Z,3.87
2022-11-17T21:02:37.588Z,3.73
2022-11-17T21:05:16.703Z,3.40
2022-11-17T21:07:49.354Z,3.83
2022-11-17T21:10:51.108Z,4.40
2022-11-17T21:13:23.551Z,3.70
2022-11-17T21:16:07.824Z,3.67
2022-11-17T21:18:40.903Z,3.67
2022-11-17T21:21:11.378Z,3.40
2022-11-17T21:23:42.365Z,3.30
2022-11-17T21:26:14.542Z,3.80
2022-11-17T21:28:45.519Z,3.20
2022-11-17T21:31:16.827Z,3.50
2022-11-17T21:33:55.570Z,4.00
2022-11-17T21:36:25.288Z,3.53
2022-11-17T21:38:55.850Z,3.90
2022-11-17T21:44:55.946Z,3.57
2022-11-17T21:47:28.432Z,4.47
2022-11-17T21:49:59.822Z,3.97
2022-11-17T21:52:30.837Z,4.07
2022-11-17T21:54:59.180Z,3.90
2022-11-17T21:57:48.252Z,4.20
2022-11-17T22:00:25.467Z,4.00
2022-11-17T22:02:55.977Z,3.80
2022-11-17T22:05:24.409Z,4.10
2022-11-17T22:07:55.409Z,3.60
2022-11-17T22:10:25.002Z,3.80
2022-11-17T22:13:01.961Z,4.20
2022-11-17T22:15:31.467Z,4.20
2022-11-17T22:18:05.936Z,3.97
2022-11-17T22:20:34.606Z,4.23
2022-11-17T22:23:05.185Z,4.20
2022-11-17T22:25:45.593Z,5.37
2022-11-17T22:28:18.794Z,5.80
2022-11-17T22:30:48.645Z,6.07
2022-11-17T22:33:18.243Z,5.30
2022-11-17T22:35:47.970Z,5.53
2022-11-17T22:38:22.141Z,5.80
2022-11-17T22:40:54.056Z,5.27
2022-11-17T22:43:29.665Z,4.93
2022-11-17T22:45:58.125Z,5.33
2022-11-17T22:48:30.609Z,4.80
2022-11-17T22:51:02.422Z,4.97
2022-11-17T22:53:35.750Z,5.20
2022-11-17T22:56:10.950Z,5.53
2022-11-17T22:59:03.593Z,5.10
2022-11-17T23:01:41.330Z,5.00
2022-11-17T23:07:15.297Z,6.03
2022-11-17T23:09:46.426Z,6.67
2022-11-17T23:12:18.076Z,6.30
2022-11-17T23:14:50.659Z,5.43
2022-11-17T23:17:22.665Z,4.67
2022-11-17T23:19:52.025Z,4.60
2022-11-17T23:22:21.950Z,4.87
2022-11-17T23:24:50.313Z,5.63
2022-11-17T23:27:18.568Z,4.80
2022-11-17T23:29:48.136Z,4.27
2022-11-17T23:32:16.452Z,4.73
2022-11-17T23:34:45.785Z,4.40
2022-11-17T23:37:14.830Z,7.70
2022-11-17T23:39:43.116Z,4.97
2022-11-17T23:42:11.822Z,5.57
2022-11-17T23:44:45.714Z,5.20
2022-11-17T23:47:16.967Z,5.40
2022-11-17T23:49:46.292Z,5.10
2022-11-17T23:52:15.913Z,5.70
2022-11-17T23:54:48.372Z,5.50
2022-11-17T23:57:16.860Z,5.37
